sensor_id;sensor_type;location;lat;lon;timestamp;P1;durP1;ratioP1;P2;durP2;ratioP2
3867;SDS011;1949;48.152;11.528;2023-04-25T00:03:32;3.20;;;1.60;;
3867;SDS011;1949;48.152;11.528;2023-04-25T00:06:04;3.60;;;1.80;;
3867;SDS011;1949;48.152;11.528;2023-04-25T00:08:31;2.77;;;1.47;;
3867;SDS011;1949;48.152;11.528;2023-04-25T00:10:57;4.57;;;1.50;;
3867;SDS011;1949;48.152;11.528;2023-04-25T00:13:25;3.87;;;1.50;;
3867;SDS011;1949;48.152;11.528;2023-04-25T00:15:57;10.10;;;1.90;;
3867;SDS011;1949;48.152;11.528;2023-04-25T00:18:24;5.33;;;1.20;;
3867;SDS011;1949;48.152;11.528;2023-04-25T00:20:55;2.40;;;1.50;;
3867;SDS011;1949;48.152;11.528;2023-04-25T00:25:51;3.10;;;1.70;;
3867;SDS011;1949;48.152;11.528;2023-04-25T00:28:18;1.73;;;1.40;;
3867;SDS011;1949;48.152;11.528;2023-04-25T00:30:45;1.90;;;1.30;;
3867;SDS011;1949;48.152;11.528;2023-04-25T00:33:13;3.60;;;1.40;;
3867;SDS011;1949;48.152;11.528;2023-04-25T00:35:49;1.90;;;1.50;;
3867;SDS011;1949;48.152;11.528;2023-04-25T00:38:17;1.83;;;1.47;;
3867;SDS011;1949;48.152;11.528;2023-04-25T00:40:46;3.70;;;1.80;;
3867;SDS011;1949;48.152;11.528;2023-04-25T00:43:11;2.70;;;1.40;;
3867;SDS011;1949;48.152;11.528;2023-04-25T00:45:40;4.20;;;1.40;;
3867;SDS011;1949;48.152;11.528;2023-04-25T00:48:08;1.70;;;1.40;;
3867;SDS011;1949;48.152;11.528;2023-04-25T00:50:37;2.60;;;1.57;;
3867;SDS011;1949;48.152;11.528;2023-04-25T00:53:03;1.47;;;1.20;;
3867;SDS011;1949;48.152;11.528;2023-04-25T00:55:30;2.03;;;1.20;;
3867;SDS011;1949;48.152;11.528;2023-04-25T00:58:02;4.07;;;2.00;;
3867;SDS011;1949;48.152;11.528;2023-04-25T01:00:28;7.40;;;1.93;;
3867;SDS011;1949;48.152;11.528;2023-04-25T01:05:25;5.10;;;1.80;;
3867;SDS011;1949;48.152;11.528;2023-04-25T01:07:54;3.93;;;1.40;;
3867;SDS011;1949;48.152;11.528;2023-04-25T01:10:20;1.30;;;1.20;;
3867;SDS011;1949;48.152;11.528;2023-04-25T01:12:52;2.70;;;1.40;;
3867;SDS011;1949;48.152;11.528;2023-04-25T01:15:24;14.53;;;1.37;;
3867;SDS011;1949;48.152;11.528;2023-04-25T01:17:51;1.30;;;1.10;;
3867;SDS011;1949;48.152;11.528;2023-04-25T01:20:23;2.13;;;1.20;;
3867;SDS011;1949;48.152;11.528;2023-04-25T01:22:50;1.70;;;1.50;;
3867;SDS011;1949;48.152;11.528;2023-04-25T01:25:17;1.40;;;1.30;;
3867;SDS011;1949;48.152;11.528;2023-04-25T01:30:16;2.90;;;1.60;;
3867;SDS011;1949;48.152;11.528;2023-04-25T01:32:43;1.47;;;1.37;;
3867;SDS011;1949;48.152;11.528;2023-04-25T01:35:10;2.63;;;1.43;;
3867;SDS011;1949;48.152;11.528;2023-04-25T01:37:40;1.50;;;1.37;;
3867;SDS011;1949;48.152;11.528;2023-04-25T01:40:07;4.30;;;1.50;;
3867;SDS011;1949;48.152;11.528;2023-04-25T01:42:34;2.40;;;1.60;;
3867;SDS011;1949;48.152;11.528;2023-04-25T01:47:32;3.77;;;1.27;;
3867;SDS011;1949;48.152;11.528;2023-04-25T01:50:02;7.63;;;2.13;;
3867;SDS011;1949;48.152;11.528;2023-04-25T01:52:32;6.70;;;1.20;;
3867;SDS011;1949;48.152;11.528;2023-04-25T01:54:59;1.40;;;1.30;;
3867;SDS011;1949;48.152;11.528;2023-04-25T01:57:27;5.07;;;1.87;;
3867;SDS011;1949;48.152;11.528;2023-04-25T02:00:01;3.20;;;1.87;;
3867;SDS011;1949;48.152;11.528;2023-04-25T02:02:29;1.60;;;1.23;;
3867;SDS011;1949;48.152;11.528;2023-04-25T02:05:05;1.57;;;1.23;;
3867;SDS011;1949;48.152;11.528;2023-04-25T02:07:31;1.97;;;1.43;;
3867;SDS011;1949;48.152;11.528;2023-04-25T02:09:57;3.77;;;1.33;;
3867;SDS011;1949;48.152;11.528;2023-04-25T02:12:27;1.70;;;1.60;;
3867;SDS011;1949;48.152;11.528;2023-04-25T02:14:54;3.50;;;1.63;;
3867;SDS011;1949;48.152;11.528;2023-04-25T02:17:20;1.73;;;1.50;;
3867;SDS011;1949;48.152;11.528;2023-04-25T02:19:48;1.40;;;1.30;;
3867;SDS011;1949;48.152;11.528;2023-04-25T02:22:16;2.47;;;1.30;;
3867;SDS011;1949;48.152;11.528;2023-04-25T02:27:17;2.93;;;1.53;;
3867;SDS011;1949;48.152;11.528;2023-04-25T02:29:43;3.60;;;1.67;;
3867;SDS011;1949;48.152;11.528;2023-04-25T02:32:11;4.10;;;1.67;;
3867;SDS011;1949;48.152;11.528;2023-04-25T02:34:36;1.67;;;1.47;;
3867;SDS011;1949;48.152;11.528;2023-04-25T02:37:03;2.60;;;1.60;;
3867;SDS011;1949;48.152;11.528;2023-04-25T02:39:29;3.77;;;1.50;;
3867;SDS011;1949;48.152;11.528;2023-04-25T02:41:55;4.33;;;1.40;;
3867;SDS011;1949;48.152;11.528;2023-04-25T02:44:23;1.83;;;1.37;;
3867;SDS011;1949;48.152;11.528;2023-04-25T02:49:20;4.03;;;1.60;;
3867;SDS011;1949;48.152;11.528;2023-04-25T02:54:14;2.33;;;1.67;;
3867;SDS011;1949;48.152;11.528;2023-04-25T02:56:40;4.93;;;1.60;;
3867;SDS011;1949;48.152;11.528;2023-04-25T02:59:05;2.80;;;1.60;;
3867;SDS011;1949;48.152;11.528;2023-04-25T03:01:31;3.03;;;1.40;;
3867;SDS011;1949;48.152;11.528;2023-04-25T03:03:57;3.70;;;1.63;;
3867;SDS011;1949;48.152;11.528;2023-04-25T03:06:22;2.00;;;1.80;;
3867;SDS011;1949;48.152;11.528;2023-04-25T03:08:48;1.80;;;1.53;;
3867;SDS011;1949;48.152;11.528;2023-04-25T03:11:14;4.40;;;1.40;;
3867;SDS011;1949;48.152;11.528;2023-04-25T03:13:40;12.93;;;1.70;;
3867;SDS011;1949;48.152;11.528;2023-04-25T03:16:05;2.10;;;1.23;;
3867;SDS011;1949;48.152;11.528;2023-04-25T03:18:31;3.83;;;1.20;;
3867;SDS011;1949;48.152;11.528;2023-04-25T03:20:58;2.77;;;1.40;;
3867;SDS011;1949;48.152;11.528;2023-04-25T03:23:23;1.50;;;1.40;;
3867;SDS011;1949;48.152;11.528;2023-04-25T03:25:50;2.40;;;1.47;;
3867;SDS011;1949;48.152;11.528;2023-04-25T03:28:17;3.63;;;1.47;;
3867;SDS011;1949;48.152;11.528;2023-04-25T03:30:43;1.00;;;1.00;;
3867;SDS011;1949;48.152;11.528;2023-04-25T03:33:08;2.20;;;1.20;;
3867;SDS011;1949;48.152;11.528;2023-04-25T03:35:36;1.30;;;1.20;;
3867;SDS011;1949;48.152;11.528;2023-04-25T03:38:02;1.40;;;1.30;;
3867;SDS011;1949;48.152;11.528;2023-04-25T03:40:28;4.23;;;1.50;;
3867;SDS011;1949;48.152;11.528;2023-04-25T03:42:54;3.37;;;1.33;;
3867;SDS011;1949;48.152;11.528;2023-04-25T03:45:20;3.60;;;1.47;;
3867;SDS011;1949;48.152;11.528;2023-04-25T03:47:46;3.40;;;1.10;;
3867;SDS011;1949;48.152;11.528;2023-04-25T03:50:11;2.67;;;1.07;;
3867;SDS011;1949;48.152;11.528;2023-04-25T03:52:39;1.07;;;0.97;;
3867;SDS011;1949;48.152;11.528;2023-04-25T03:55:05;6.77;;;1.03;;
3867;SDS011;1949;48.152;11.528;2023-04-25T03:57:34;1.70;;;1.07;;
3867;SDS011;1949;48.152;11.528;2023-04-25T03:59:59;1.30;;;1.20;;
3867;SDS011;1949;48.152;11.528;2023-04-25T04:02:26;2.30;;;1.20;;
3867;SDS011;1949;48.152;11.528;2023-04-25T04:04:52;1.43;;;1.13;;
3867;SDS011;1949;48.152;11.528;2023-04-25T04:07:18;5.70;;;1.20;;
3867;SDS011;1949;48.152;11.528;2023-04-25T04:09:45;3.63;;;1.03;;
3867;SDS011;1949;48.152;11.528;2023-04-25T04:12:11;3.37;;;1.70;;
3867;SDS011;1949;48.152;11.528;2023-04-25T04:14:38;4.03;;;2.07;;
3867;SDS011;1949;48.152;11.528;2023-04-25T04:17:05;3.60;;;1.63;;
3867;SDS011;1949;48.152;11.528;2023-04-25T04:19:33;2.80;;;1.90;;
3867;SDS011;1949;48.152;11.528;2023-04-25T04:21:58;4.97;;;1.63;;
3867;SDS011;1949;48.152;11.528;2023-04-25T04:24:24;3.43;;;1.80;;
3867;SDS011;1949;48.152;11.528;2023-04-25T04:26:50;5.77;;;3.10;;
3867;SDS011;1949;48.152;11.528;2023-04-25T04:29:17;3.80;;;1.90;;
3867;SDS011;1949;48.152;11.528;2023-04-25T04:31:50;3.43;;;1.63;;
3867;SDS011;1949;48.152;11.528;2023-04-25T04:34:17;2.20;;;1.53;;
3867;SDS011;1949;48.152;11.528;2023-04-25T04:36:45;4.80;;;1.97;;
3867;SDS011;1949;48.152;11.528;2023-04-25T04:39:12;3.93;;;2.20;;
3867;SDS011;1949;48.152;11.528;2023-04-25T04:41:41;3.43;;;1.83;;
3867;SDS011;1949;48.152;11.528;2023-04-25T04:44:07;4.93;;;1.60;;
3867;SDS011;1949;48.152;11.528;2023-04-25T04:46:38;2.43;;;1.93;;
3867;SDS011;1949;48.152;11.528;2023-04-25T04:49:08;14.10;;;2.37;;
3867;SDS011;1949;48.152;11.528;2023-04-25T04:51:34;4.53;;;2.00;;
3867;SDS011;1949;48.152;11.528;2023-04-25T04:54:00;5.90;;;2.50;;
3867;SDS011;1949;48.152;11.528;2023-04-25T04:56:28;6.93;;;2.10;;
3867;SDS011;1949;48.152;11.528;2023-04-25T04:58:59;11.33;;;3.27;;
3867;SDS011;1949;48.152;11.528;2023-04-25T05:01:25;8.33;;;3.50;;
3867;SDS011;1949;48.152;11.528;2023-04-25T05:03:51;4.37;;;2.47;;
3867;SDS011;1949;48.152;11.528;2023-04-25T05:06:20;3.27;;;2.20;;
3867;SDS011;1949;48.152;11.528;2023-04-25T05:08:53;5.43;;;2.80;;
3867;SDS011;1949;48.152;11.528;2023-04-25T05:13:51;6.37;;;2.40;;
3867;SDS011;1949;48.152;11.528;2023-04-25T05:16:18;3.20;;;1.83;;
3867;SDS011;1949;48.152;11.528;2023-04-25T05:18:44;3.40;;;2.00;;
3867;SDS011;1949;48.152;11.528;2023-04-25T05:21:11;3.87;;;2.47;;
3867;SDS011;1949;48.152;11.528;2023-04-25T05:23:36;3.00;;;1.70;;
3867;SDS011;1949;48.152;11.528;2023-04-25T05:26:02;5.83;;;2.03;;
3867;SDS011;1949;48.152;11.528;2023-04-25T05:28:29;3.83;;;2.13;;
3867;SDS011;1949;48.152;11.528;2023-04-25T05:30:55;4.97;;;1.90;;
3867;SDS011;1949;48.152;11.528;2023-04-25T05:33:22;3.87;;;2.00;;
3867;SDS011;1949;48.152;11.528;2023-04-25T05:35:52;2.80;;;1.67;;
3867;SDS011;1949;48.152;11.528;2023-04-25T05:38:17;7.10;;;2.70;;
3867;SDS011;1949;48.152;11.528;2023-04-25T05:40:44;3.10;;;1.80;;
3867;SDS011;1949;48.152;11.528;2023-04-25T05:43:10;4.47;;;2.30;;
3867;SDS011;1949;48.152;11.528;2023-04-25T05:45:36;5.20;;;2.10;;
3867;SDS011;1949;48.152;11.528;2023-04-25T05:48:03;2.63;;;1.67;;
3867;SDS011;1949;48.152;11.528;2023-04-25T05:50:30;18.00;;;4.13;;
3867;SDS011;1949;48.152;11.528;2023-04-25T05:52:56;4.90;;;2.63;;
3867;SDS011;1949;48.152;11.528;2023-04-25T05:55:22;5.87;;;2.63;;
3867;SDS011;1949;48.152;11.528;2023-04-25T05:57:50;5.23;;;2.40;;
3867;SDS011;1949;48.152;11.528;2023-04-25T06:00:17;7.93;;;2.00;;
3867;SDS011;1949;48.152;11.528;2023-04-25T06:02:45;4.73;;;1.57;;
3867;SDS011;1949;48.152;11.528;2023-04-25T06:05:11;3.00;;;1.80;;
3867;SDS011;1949;48.152;11.528;2023-04-25T06:07:37;3.23;;;2.20;;
3867;SDS011;1949;48.152;11.528;2023-04-25T06:10:03;11.00;;;3.33;;
3867;SDS011;1949;48.152;11.528;2023-04-25T06:12:32;4.50;;;2.07;;
3867;SDS011;1949;48.152;11.528;2023-04-25T06:14:59;8.20;;;2.97;;
3867;SDS011;1949;48.152;11.528;2023-04-25T06:17:25;2.67;;;1.13;;
3867;SDS011;1949;48.152;11.528;2023-04-25T06:19:50;2.97;;;2.10;;
3867;SDS011;1949;48.152;11.528;2023-04-25T06:22:19;2.40;;;1.33;;
3867;SDS011;1949;48.152;11.528;2023-04-25T06:24:45;1.77;;;1.63;;
3867;SDS011;1949;48.152;11.528;2023-04-25T06:27:11;3.13;;;1.80;;
3867;SDS011;1949;48.152;11.528;2023-04-25T06:29:45;5.33;;;1.70;;
3867;SDS011;1949;48.152;11.528;2023-04-25T06:32:11;4.23;;;2.20;;
3867;SDS011;1949;48.152;11.528;2023-04-25T06:34:38;2.07;;;1.50;;
3867;SDS011;1949;48.152;11.528;2023-04-25T06:37:04;4.13;;;1.80;;
3867;SDS011;1949;48.152;11.528;2023-04-25T06:39:30;2.00;;;1.77;;
3867;SDS011;1949;48.152;11.528;2023-04-25T06:41:56;3.10;;;1.60;;
3867;SDS011;1949;48.152;11.528;2023-04-25T06:44:21;4.00;;;2.07;;
3867;SDS011;1949;48.152;11.528;2023-04-25T06:46:50;5.40;;;2.20;;
3867;SDS011;1949;48.152;11.528;2023-04-25T06:49:16;5.00;;;2.37;;
3867;SDS011;1949;48.152;11.528;2023-04-25T06:51:42;2.10;;;1.40;;
3867;SDS011;1949;48.152;11.528;2023-04-25T06:54:09;6.20;;;1.60;;
3867;SDS011;1949;48.152;11.528;2023-04-25T06:56:34;3.20;;;2.00;;
3867;SDS011;1949;48.152;11.528;2023-04-25T06:59:00;8.27;;;3.60;;
3867;SDS011;1949;48.152;11.528;2023-04-25T07:01:26;4.30;;;2.03;;
3867;SDS011;1949;48.152;11.528;2023-04-25T07:06:21;6.13;;;1.70;;
3867;SDS011;1949;48.152;11.528;2023-04-25T07:08:48;3.30;;;2.10;;
3867;SDS011;1949;48.152;11.528;2023-04-25T07:11:16;2.67;;;1.97;;
3867;SDS011;1949;48.152;11.528;2023-04-25T07:13:42;12.83;;;4.30;;
3867;SDS011;1949;48.152;11.528;2023-04-25T07:16:07;1.73;;;1.63;;
3867;SDS011;1949;48.152;11.528;2023-04-25T07:18:33;4.63;;;2.10;;
3867;SDS011;1949;48.152;11.528;2023-04-25T07:21:01;3.87;;;1.87;;
3867;SDS011;1949;48.152;11.528;2023-04-25T07:23:26;2.90;;;2.30;;
3867;SDS011;1949;48.152;11.528;2023-04-25T07:25:53;3.37;;;2.30;;
3867;SDS011;1949;48.152;11.528;2023-04-25T07:28:19;3.80;;;1.80;;
3867;SDS011;1949;48.152;11.528;2023-04-25T07:30:46;2.83;;;1.43;;
3867;SDS011;1949;48.152;11.528;2023-04-25T07:33:12;3.50;;;1.70;;
3867;SDS011;1949;48.152;11.528;2023-04-25T07:35:38;2.70;;;1.70;;
3867;SDS011;1949;48.152;11.528;2023-04-25T07:38:03;2.10;;;1.60;;
3867;SDS011;1949;48.152;11.528;2023-04-25T07:40:31;4.30;;;1.57;;
3867;SDS011;1949;48.152;11.528;2023-04-25T07:42:58;2.20;;;1.57;;
3867;SDS011;1949;48.152;11.528;2023-04-25T07:45:26;12.33;;;1.63;;
3867;SDS011;1949;48.152;11.528;2023-04-25T07:47:53;4.47;;;1.93;;
3867;SDS011;1949;48.152;11.528;2023-04-25T07:50:18;3.13;;;1.97;;
3867;SDS011;1949;48.152;11.528;2023-04-25T07:52:44;2.73;;;1.87;;
3867;SDS011;1949;48.152;11.528;2023-04-25T07:55:10;2.80;;;2.00;;
3867;SDS011;1949;48.152;11.528;2023-04-25T07:57:36;4.87;;;2.00;;
3867;SDS011;1949;48.152;11.528;2023-04-25T08:00:03;4.27;;;2.00;;
3867;SDS011;1949;48.152;11.528;2023-04-25T08:02:30;3.80;;;1.97;;
3867;SDS011;1949;48.152;11.528;2023-04-25T08:04:55;2.60;;;1.57;;
3867;SDS011;1949;48.152;11.528;2023-04-25T08:07:24;2.70;;;1.80;;
3867;SDS011;1949;48.152;11.528;2023-04-25T08:09:50;4.27;;;2.10;;
3867;SDS011;1949;48.152;11.528;2023-04-25T08:12:16;5.03;;;1.93;;
3867;SDS011;1949;48.152;11.528;2023-04-25T08:14:41;2.27;;;1.73;;
3867;SDS011;1949;48.152;11.528;2023-04-25T08:17:09;2.50;;;1.87;;
3867;SDS011;1949;48.152;11.528;2023-04-25T08:19:37;3.23;;;1.63;;
3867;SDS011;1949;48.152;11.528;2023-04-25T08:22:02;4.23;;;1.93;;
3867;SDS011;1949;48.152;11.528;2023-04-25T08:24:28;3.03;;;2.10;;
3867;SDS011;1949;48.152;11.528;2023-04-25T08:26:54;2.17;;;1.60;;
3867;SDS011;1949;48.152;11.528;2023-04-25T08:29:20;2.57;;;1.40;;
3867;SDS011;1949;48.152;11.528;2023-04-25T08:31:49;3.70;;;1.63;;
3867;SDS011;1949;48.152;11.528;2023-04-25T08:34:17;4.97;;;1.90;;
3867;SDS011;1949;48.152;11.528;2023-04-25T08:36:43;3.10;;;1.90;;
3867;SDS011;1949;48.152;11.528;2023-04-25T08:39:09;1.40;;;1.30;;
3867;SDS011;1949;48.152;11.528;2023-04-25T08:41:36;1.10;;;1.00;;
3867;SDS011;1949;48.152;11.528;2023-04-25T08:44:03;1.73;;;1.03;;
3867;SDS011;1949;48.152;11.528;2023-04-25T08:46:30;6.50;;;1.20;;
3867;SDS011;1949;48.152;11.528;2023-04-25T08:49:01;2.13;;;1.10;;
3867;SDS011;1949;48.152;11.528;2023-04-25T08:51:31;3.83;;;1.50;;
3867;SDS011;1949;48.152;11.528;2023-04-25T08:54:01;1.60;;;1.20;;
3867;SDS011;1949;48.152;11.528;2023-04-25T08:56:35;1.23;;;0.90;;
3867;SDS011;1949;48.152;11.528;2023-04-25T08:59:02;2.63;;;1.07;;
3867;SDS011;1949;48.152;11.528;2023-04-25T09:01:29;1.60;;;1.27;;
3867;SDS011;1949;48.152;11.528;2023-04-25T09:03:57;4.50;;;1.40;;
3867;SDS011;1949;48.152;11.528;2023-04-25T09:06:25;1.80;;;1.20;;
3867;SDS011;1949;48.152;11.528;2023-04-25T09:08:51;1.30;;;1.20;;
3867;SDS011;1949;48.152;11.528;2023-04-25T09:11:16;1.20;;;1.10;;
3867;SDS011;1949;48.152;11.528;2023-04-25T09:16:35;1.37;;;1.27;;
3867;SDS011;1949;48.152;11.528;2023-04-25T09:19:20;2.37;;;1.70;;
3867;SDS011;1949;48.152;11.528;2023-04-25T09:21:54;2.40;;;1.03;;
3867;SDS011;1949;48.152;11.528;2023-04-25T09:24:31;1.93;;;1.23;;
3867;SDS011;1949;48.152;11.528;2023-04-25T09:26:59;2.83;;;1.03;;
3867;SDS011;1949;48.152;11.528;2023-04-25T09:29:35;16.33;;;1.20;;
3867;SDS011;1949;48.152;11.528;2023-04-25T09:32:21;1.80;;;1.20;;
3867;SDS011;1949;48.152;11.528;2023-04-25T09:34:49;9.23;;;1.40;;
3867;SDS011;1949;48.152;11.528;2023-04-25T09:39:48;1.53;;;1.37;;
3867;SDS011;1949;48.152;11.528;2023-04-25T09:42:16;2.40;;;1.30;;
3867;SDS011;1949;48.152;11.528;2023-04-25T09:44:44;32.13;;;13.13;;
3867;SDS011;1949;48.152;11.528;2023-04-25T09:47:11;14.33;;;5.53;;
3867;SDS011;1949;48.152;11.528;2023-04-25T09:49:44;9.13;;;4.70;;
3867;SDS011;1949;48.152;11.528;2023-04-25T09:52:28;13.03;;;6.10;;
3867;SDS011;1949;48.152;11.528;2023-04-25T09:54:53;19.30;;;6.60;;
3867;SDS011;1949;48.152;11.528;2023-04-25T09:57:20;16.83;;;5.97;;
3867;SDS011;1949;48.152;11.528;2023-04-25T09:59:51;19.03;;;8.83;;
3867;SDS011;1949;48.152;11.528;2023-04-25T10:02:19;17.73;;;7.60;;
3867;SDS011;1949;48.152;11.528;2023-04-25T10:04:48;14.27;;;7.03;;
3867;SDS011;1949;48.152;11.528;2023-04-25T10:07:25;18.90;;;8.20;;
3867;SDS011;1949;48.152;11.528;2023-04-25T10:09:59;13.90;;;5.97;;
3867;SDS011;1949;48.152;11.528;2023-04-25T10:12:29;12.20;;;5.30;;
3867;SDS011;1949;48.152;11.528;2023-04-25T10:14:58;16.23;;;7.27;;
3867;SDS011;1949;48.152;11.528;2023-04-25T10:17:27;13.67;;;6.50;;
3867;SDS011;1949;48.152;11.528;2023-04-25T10:19:55;8.13;;;4.63;;
3867;SDS011;1949;48.152;11.528;2023-04-25T10:22:37;8.07;;;4.03;;
3867;SDS011;1949;48.152;11.528;2023-04-25T10:25:08;4.40;;;2.30;;
3867;SDS011;1949;48.152;11.528;2023-04-25T10:27:35;11.17;;;5.60;;
3867;SDS011;1949;48.152;11.528;2023-04-25T10:32:41;7.27;;;4.50;;
3867;SDS011;1949;48.152;11.528;2023-04-25T10:35:11;12.30;;;6.40;;
3867;SDS011;1949;48.152;11.528;2023-04-25T10:40:28;6.80;;;1.50;;
3867;SDS011;1949;48.152;11.528;2023-04-25T10:42:55;1.47;;;1.20;;
3867;SDS011;1949;48.152;11.528;2023-04-25T10:45:52;2.90;;;1.90;;
3867;SDS011;1949;48.152;11.528;2023-04-25T10:48:27;12.10;;;5.93;;
3867;SDS011;1949;48.152;11.528;2023-04-25T10:53:38;3.10;;;1.47;;
3867;SDS011;1949;48.152;11.528;2023-04-25T10:56:19;2.00;;;1.80;;
3867;SDS011;1949;48.152;11.528;2023-04-25T10:58:48;3.23;;;2.20;;
3867;SDS011;1949;48.152;11.528;2023-04-25T11:03:56;5.50;;;2.40;;
3867;SDS011;1949;48.152;11.528;2023-04-25T11:08:51;1.80;;;1.40;;
3867;SDS011;1949;48.152;11.528;2023-04-25T11:11:20;6.60;;;1.20;;
3867;SDS011;1949;48.152;11.528;2023-04-25T11:13:49;5.70;;;1.43;;
3867;SDS011;1949;48.152;11.528;2023-04-25T11:16:16;11.07;;;1.50;;
3867;SDS011;1949;48.152;11.528;2023-04-25T11:18:46;3.97;;;2.33;;
3867;SDS011;1949;48.152;11.528;2023-04-25T11:21:11;1.87;;;1.27;;
3867;SDS011;1949;48.152;11.528;2023-04-25T11:23:38;3.50;;;1.80;;
3867;SDS011;1949;48.152;11.528;2023-04-25T11:26:05;4.40;;;2.50;;
3867;SDS011;1949;48.152;11.528;2023-04-25T11:28:31;5.73;;;1.97;;
3867;SDS011;1949;48.152;11.528;2023-04-25T11:30:56;7.80;;;1.97;;
3867;SDS011;1949;48.152;11.528;2023-04-25T11:33:23;8.60;;;4.33;;
3867;SDS011;1949;48.152;11.528;2023-04-25T11:35:50;4.87;;;2.93;;
3867;SDS011;1949;48.152;11.528;2023-04-25T11:38:24;6.27;;;1.93;;
3867;SDS011;1949;48.152;11.528;2023-04-25T11:40:54;5.47;;;2.73;;
3867;SDS011;1949;48.152;11.528;2023-04-25T11:43:20;4.40;;;2.60;;
3867;SDS011;1949;48.152;11.528;2023-04-25T11:45:50;14.23;;;4.60;;
3867;SDS011;1949;48.152;11.528;2023-04-25T11:48:19;1.70;;;1.40;;
3867;SDS011;1949;48.152;11.528;2023-04-25T11:50:48;11.80;;;3.00;;
3867;SDS011;1949;48.152;11.528;2023-04-25T11:53:14;1.70;;;1.27;;
3867;SDS011;1949;48.152;11.528;2023-04-25T11:55:45;4.00;;;2.10;;
3867;SDS011;1949;48.152;11.528;2023-04-25T11:58:10;1.53;;;1.43;;
3867;SDS011;1949;48.152;11.528;2023-04-25T12:00:38;4.40;;;2.33;;
3867;SDS011;1949;48.152;11.528;2023-04-25T12:03:08;5.33;;;2.30;;
3867;SDS011;1949;48.152;11.528;2023-04-25T12:05:36;5.00;;;2.90;;
3867;SDS011;1949;48.152;11.528;2023-04-25T12:08:09;3.33;;;1.33;;
3867;SDS011;1949;48.152;11.528;2023-04-25T12:10:37;3.40;;;2.00;;
3867;SDS011;1949;48.152;11.528;2023-04-25T12:15:50;1.63;;;1.27;;
3867;SDS011;1949;48.152;11.528;2023-04-25T12:18:20;3.50;;;1.93;;
3867;SDS011;1949;48.152;11.528;2023-04-25T12:20:55;3.87;;;2.73;;
3867;SDS011;1949;48.152;11.528;2023-04-25T12:23:27;1.83;;;1.20;;
3867;SDS011;1949;48.152;11.528;2023-04-25T12:25:55;1.50;;;1.33;;
3867;SDS011;1949;48.152;11.528;2023-04-25T12:28:21;1.00;;;0.93;;
3867;SDS011;1949;48.152;11.528;2023-04-25T12:31:02;1.90;;;1.33;;
3867;SDS011;1949;48.152;11.528;2023-04-25T12:33:36;2.87;;;1.40;;
3867;SDS011;1949;48.152;11.528;2023-04-25T12:36:06;5.40;;;2.63;;
3867;SDS011;1949;48.152;11.528;2023-04-25T12:38:38;2.60;;;1.17;;
3867;SDS011;1949;48.152;11.528;2023-04-25T12:43:34;5.90;;;3.30;;
3867;SDS011;1949;48.152;11.528;2023-04-25T12:46:08;3.20;;;2.03;;
3867;SDS011;1949;48.152;11.528;2023-04-25T12:48:36;1.73;;;1.20;;
3867;SDS011;1949;48.152;11.528;2023-04-25T12:51:03;4.33;;;2.67;;
3867;SDS011;1949;48.152;11.528;2023-04-25T12:53:29;2.20;;;1.57;;
3867;SDS011;1949;48.152;11.528;2023-04-25T12:55:54;1.17;;;1.07;;
3867;SDS011;1949;48.152;11.528;2023-04-25T12:58:20;8.07;;;2.03;;
3867;SDS011;1949;48.152;11.528;2023-04-25T13:00:46;3.07;;;1.00;;
3867;SDS011;1949;48.152;11.528;2023-04-25T13:03:12;1.70;;;1.30;;
3867;SDS011;1949;48.152;11.528;2023-04-25T13:05:38;1.93;;;1.30;;
3867;SDS011;1949;48.152;11.528;2023-04-25T13:08:04;4.63;;;2.07;;
3867;SDS011;1949;48.152;11.528;2023-04-25T13:10:30;1.13;;;1.00;;
3867;SDS011;1949;48.152;11.528;2023-04-25T13:12:59;1.47;;;0.87;;
3867;SDS011;1949;48.152;11.528;2023-04-25T13:15:26;1.40;;;0.90;;
3867;SDS011;1949;48.152;11.528;2023-04-25T13:17:52;1.53;;;1.13;;
3867;SDS011;1949;48.152;11.528;2023-04-25T13:20:17;2.83;;;1.13;;
3867;SDS011;1949;48.152;11.528;2023-04-25T13:22:47;0.87;;;0.87;;
3867;SDS011;1949;48.152;11.528;2023-04-25T13:25:14;1.40;;;1.10;;
3867;SDS011;1949;48.152;11.528;2023-04-25T13:27:41;3.13;;;1.30;;
3867;SDS011;1949;48.152;11.528;2023-04-25T13:30:09;3.07;;;1.13;;
3867;SDS011;1949;48.152;11.528;2023-04-25T13:32:39;0.80;;;0.80;;
3867;SDS011;1949;48.152;11.528;2023-04-25T13:35:09;2.17;;;1.50;;
3867;SDS011;1949;48.152;11.528;2023-04-25T13:37:36;1.60;;;1.10;;
3867;SDS011;1949;48.152;11.528;2023-04-25T13:40:02;1.67;;;1.17;;
3867;SDS011;1949;48.152;11.528;2023-04-25T13:42:30;2.40;;;0.80;;
3867;SDS011;1949;48.152;11.528;2023-04-25T13:44:56;1.23;;;0.80;;
3867;SDS011;1949;48.152;11.528;2023-04-25T13:47:22;0.80;;;0.77;;
3867;SDS011;1949;48.152;11.528;2023-04-25T13:49:48;0.70;;;0.60;;
3867;SDS011;1949;48.152;11.528;2023-04-25T13:52:15;0.70;;;0.60;;
3867;SDS011;1949;48.152;11.528;2023-04-25T13:54:41;1.10;;;1.00;;
3867;SDS011;1949;48.152;11.528;2023-04-25T13:57:08;2.07;;;0.80;;
3867;SDS011;1949;48.152;11.528;2023-04-25T13:59:35;3.03;;;1.63;;
3867;SDS011;1949;48.152;11.528;2023-04-25T14:02:02;1.23;;;1.00;;
3867;SDS011;1949;48.152;11.528;2023-04-25T14:04:28;1.97;;;1.27;;
3867;SDS011;1949;48.152;11.528;2023-04-25T14:06:59;3.90;;;1.73;;
3867;SDS011;1949;48.152;11.528;2023-04-25T14:09:24;2.80;;;1.40;;
3867;SDS011;1949;48.152;11.528;2023-04-25T14:11:52;1.70;;;1.37;;
3867;SDS011;1949;48.152;11.528;2023-04-25T14:14:18;3.23;;;1.43;;
3867;SDS011;1949;48.152;11.528;2023-04-25T14:16:45;2.37;;;1.30;;
3867;SDS011;1949;48.152;11.528;2023-04-25T14:19:15;2.30;;;1.43;;
3867;SDS011;1949;48.152;11.528;2023-04-25T14:21:45;3.23;;;1.33;;
3867;SDS011;1949;48.152;11.528;2023-04-25T14:24:11;1.57;;;1.20;;
3867;SDS011;1949;48.152;11.528;2023-04-25T14:26:38;1.10;;;1.00;;
3867;SDS011;1949;48.152;11.528;2023-04-25T14:29:04;1.00;;;0.80;;
3867;SDS011;1949;48.152;11.528;2023-04-25T14:31:31;1.80;;;1.40;;
3867;SDS011;1949;48.152;11.528;2023-04-25T14:33:58;1.70;;;1.00;;
3867;SDS011;1949;48.152;11.528;2023-04-25T14:36:25;1.53;;;1.10;;
3867;SDS011;1949;48.152;11.528;2023-04-25T14:38:51;3.30;;;1.80;;
3867;SDS011;1949;48.152;11.528;2023-04-25T14:41:20;11.10;;;5.30;;
3867;SDS011;1949;48.152;11.528;2023-04-25T14:43:46;2.37;;;1.50;;
3867;SDS011;1949;48.152;11.528;2023-04-25T14:46:13;2.43;;;1.57;;
3867;SDS011;1949;48.152;11.528;2023-04-25T14:48:45;1.10;;;1.00;;
3867;SDS011;1949;48.152;11.528;2023-04-25T14:51:11;17.00;;;2.63;;
3867;SDS011;1949;48.152;11.528;2023-04-25T14:53:37;0.80;;;0.80;;
3867;SDS011;1949;48.152;11.528;2023-04-25T14:56:04;1.53;;;1.00;;
3867;SDS011;1949;48.152;11.528;2023-04-25T14:58:31;1.20;;;0.77;;
3867;SDS011;1949;48.152;11.528;2023-04-25T15:00:57;0.77;;;0.77;;
3867;SDS011;1949;48.152;11.528;2023-04-25T15:19:43;1.60;;;1.20;;
3867;SDS011;1949;48.152;11.528;2023-04-25T15:37:00;4.40;;;1.20;;
3867;SDS011;1949;48.152;11.528;2023-04-25T15:55:02;1.33;;;0.90;;
3867;SDS011;1949;48.152;11.528;2023-04-25T15:57:34;1.27;;;0.90;;
3867;SDS011;1949;48.152;11.528;2023-04-25T16:12:27;2.60;;;1.00;;
3867;SDS011;1949;48.152;11.528;2023-04-25T16:27:07;1.50;;;1.20;;
3867;SDS011;1949;48.152;11.528;2023-04-25T16:42:25;3.93;;;1.50;;
3867;SDS011;1949;48.152;11.528;2023-04-25T16:51:35;5.30;;;1.87;;
3867;SDS011;1949;48.152;11.528;2023-04-25T17:00:48;1.73;;;1.40;;
3867;SDS011;1949;48.152;11.528;2023-04-25T17:18:20;3.00;;;1.73;;
3867;SDS011;1949;48.152;11.528;2023-04-25T17:27:19;3.13;;;2.17;;
3867;SDS011;1949;48.152;11.528;2023-04-25T17:33:07;3.53;;;2.20;;
3867;SDS011;1949;48.152;11.528;2023-04-25T17:35:33;2.67;;;2.13;;
3867;SDS011;1949;48.152;11.528;2023-04-25T17:38:00;3.70;;;2.13;;
3867;SDS011;1949;48.152;11.528;2023-04-25T17:40:29;3.70;;;2.50;;
3867;SDS011;1949;48.152;11.528;2023-04-25T17:42:56;2.40;;;2.10;;
3867;SDS011;1949;48.152;11.528;2023-04-25T17:45:23;4.10;;;2.70;;
3867;SDS011;1949;48.152;11.528;2023-04-25T17:47:49;6.87;;;2.50;;
3867;SDS011;1949;48.152;11.528;2023-04-25T17:50:15;2.53;;;1.83;;
3867;SDS011;1949;48.152;11.528;2023-04-25T17:52:42;6.20;;;3.40;;
3867;SDS011;1949;48.152;11.528;2023-04-25T17:55:09;3.30;;;2.33;;